Time;durP1;ratioP1;P1;durP2;ratioP2;P2;SDS_P1;SDS_P2;PMS_P1;PMS_P2;Temp;Humidity;BMP_temperature;BMP_pressure;BME280_temperature;BME280_humidity;BME280_pressure;Samples;Min_cycle;Max_cycle;Signal;HPM_P1;HPM_P2
2022/06/24 03:48:57;;;;;;;;;;;;;;;22.60;71.65;96458.75;4262775;27;10274;-71
2022/06/24 03:50:59;;;;;;;;;;;;;;;22.86;71.06;96461.34;4237848;27;5602;-71
2022/06/24 03:53:02;;;;;;;;;;;;;;;23.08;71.05;96464.41;4244279;27;5748;-71
2022/06/24 03:55:06;;;;;;;;;;;;;;;23.26;70.19;96462.16;4229089;27;5093;-71
2022/06/24 03:57:09;;;;;;;;;;;;;;;23.34;70.01;96459.66;4226334;27;5711;-70
2022/06/24 03:59:12;;;;;;;;;;;;;;;23.43;69.57;96454.44;4235875;27;5676;-70
2022/06/24 04:01:14;;;;;;;;;;;;;;;23.53;69.45;96444.38;4225574;27;5657;-69
2022/06/24 04:03:17;;;;;;;;;;;;;;;23.60;69.07;96441.38;4248846;27;5708;-68
2022/06/24 04:05:22;;;;;;;;;;;;;;;23.67;69.01;96432.94;4248976;27;5610;-68
2022/06/24 04:07:24;;;;;;;;;;;;;;;23.69;68.72;96434.28;4249023;27;5593;-68
2022/06/24 04:09:27;;;;;;;;;;;;;;;23.73;67.90;96437.19;4230442;28;5612;-69
2022/06/24 04:11:30;;;;;;;;;;;;;;;23.77;67.91;96439.03;4248870;27;6317;-68
2022/06/24 04:13:53;;;;;;;;;;;;;;;23.81;67.36;96434.69;4246893;27;5738;-69
2022/06/24 04:15:56;;;;;;;;;;;;;;;23.83;66.97;96433.59;4249134;27;5700;-69
2022/06/24 04:17:59;;;;;;;;;;;;;;;23.84;66.65;96436.00;4248913;27;5679;-69
2022/06/24 04:20:02;;;;;;;;;;;;;;;23.87;65.84;96431.91;4248740;27;5677;-68
2022/06/24 04:22:06;;;;;;;;;;;;;;;23.89;65.96;96427.84;4248696;27;5602;-69
2022/06/24 04:24:09;;;;;;;;;;;;;;;23.94;65.84;96427.00;4248571;27;5598;-69
2022/06/24 04:26:13;;;;;;;;;;;;;;;23.96;64.98;96433.72;4248890;27;5606;-69
2022/06/24 04:28:17;;;;;;;;;;;;;;;24.00;64.98;96412.31;4248745;27;5712;-68
2022/06/24 04:30:20;;;;;;;;;;;;;;;24.03;64.66;96422.56;4248603;27;5601;-68
2022/06/24 04:32:22;;;;;;;;;;;;;;;24.05;64.47;96418.50;4248504;27;5798;-69
2022/06/24 04:34:26;;;;;;;;;;;;;;;24.07;64.34;96418.19;4248509;27;5729;-69
2022/06/24 04:36:29;;;;;;;;;;;;;;;24.07;64.45;96408.19;4248548;27;5617;-68
2022/06/24 04:38:33;;;;;;;;;;;;;;;24.09;64.13;96416.81;4238435;27;5824;-69
2022/06/24 04:40:36;;;;;;;;;;;;;;;24.09;64.01;96413.31;4231596;28;5681;-69
2022/06/24 04:42:39;;;;;;;;;;;;;;;24.10;63.12;96409.50;4231307;28;5664;-70
2022/06/24 04:44:42;;;;;;;;;;;;;;;24.11;62.85;96411.13;4231378;28;5716;-67
2022/06/24 04:46:52;;;;;;;;;;;;;;;24.11;63.10;96411.13;4231560;28;5723;-67
2022/06/24 04:48:55;;;;;;;;;;;;;;;24.10;62.93;96409.50;4223804;28;5632;-67
2022/06/24 04:50:58;;;;;;;;;;;;;;;24.09;62.89;96400.59;4220054;28;5736;-68
2022/06/24 04:53:02;;;;;;;;;;;;;;;24.07;62.60;96402.81;4201421;28;5772;-68
2022/06/24 04:55:07;;;;;;;;;;;;;;;24.04;62.29;96397.19;4218307;28;5620;-68
2022/06/24 04:57:11;;;;;;;;;;;;;;;24.01;62.35;96398.56;4211278;28;5605;-73
2022/06/24 04:59:14;;;;;;;;;;;;;;;24.02;62.12;96391.28;4217481;28;5703;-73
2022/06/24 05:01:17;;;;;;;;;;;;;;;24.03;62.04;96379.38;4217285;28;5624;-73
2022/06/24 05:03:21;;;;;;;;;;;;;;;24.05;61.77;96382.59;4219461;28;5640;-73
2022/06/24 05:05:24;;;;;;;;;;;;;;;24.05;62.13;96386.09;4220196;28;5676;-74
2022/06/24 05:07:27;;;;;;;;;;;;;;;24.08;61.55;96390.91;4202997;28;5642;-73
2022/06/24 05:09:30;;;;;;;;;;;;;;;24.10;61.44;96396.00;4201883;28;5620;-73
2022/06/24 05:11:34;;;;;;;;;;;;;;;24.09;61.39;96394.41;4190152;28;5753;-74
2022/06/24 05:13:37;;;;;;;;;;;;;;;24.11;61.42;96397.63;4226318;28;5705;-73
2022/06/24 05:15:40;;;;;;;;;;;;;;;24.16;61.48;96396.78;4224477;28;5651;-74
2022/06/24 05:17:43;;;;;;;;;;;;;;;24.20;61.12;96392.38;4210715;28;6322;-74
2022/06/24 05:19:46;;;;;;;;;;;;;;;24.21;61.17;96392.09;4219618;28;5621;-74
2022/06/24 05:21:49;;;;;;;;;;;;;;;24.21;61.19;96386.69;4216093;28;5647;-74
2022/06/24 05:23:52;;;;;;;;;;;;;;;24.23;60.81;96386.41;4200729;28;5705;-74
2022/06/24 05:25:55;;;;;;;;;;;;;;;24.24;60.80;96375.31;4218973;28;5621;-74
2022/06/24 05:27:59;;;;;;;;;;;;;;;24.24;60.62;96372.63;4217476;28;5748;-74
2022/06/24 05:30:02;;;;;;;;;;;;;;;24.24;60.38;96372.63;4217047;28;5641;-74
2022/06/24 05:32:06;;;;;;;;;;;;;;;24.26;60.34;96373.13;4218937;28;5700;-74
2022/06/24 05:34:09;;;;;;;;;;;;;;;24.28;60.08;96373.63;4218570;28;5636;-74
2022/06/24 05:36:12;;;;;;;;;;;;;;;24.27;59.75;96371.22;4216987;28;5613;-74
2022/06/24 05:38:17;;;;;;;;;;;;;;;24.29;59.97;96366.34;4221481;28;5776;-74
2022/06/24 05:40:20;;;;;;;;;;;;;;;24.30;59.46;96368.78;4219144;28;5613;-74
2022/06/24 05:42:23;;;;;;;;;;;;;;;24.32;59.57;96365.78;4219393;28;5683;-74
2022/06/24 05:44:27;;;;;;;;;;;;;;;24.32;59.73;96372.00;4217194;28;6301;-74
2022/06/24 05:46:30;;;;;;;;;;;;;;;24.33;59.34;96379.00;4219193;28;5636;-74
2022/06/24 05:48:34;;;;;;;;;;;;;;;24.32;58.96;96374.69;4216234;28;5817;-68
2022/06/24 05:50:37;;;;;;;;;;;;;;;24.26;58.88;96367.72;4211413;28;5768;-68
2022/06/24 05:55:08;;;;;;;;;;;;;;;24.27;59.27;96365.84;4217017;28;5775;-69
2022/06/24 05:57:11;;;;;;;;;;;;;;;24.24;59.18;96367.22;4217866;28;5628;-69
2022/06/24 05:59:15;;;;;;;;;;;;;;;24.24;58.96;96375.31;4214736;28;5637;-68
2022/06/24 06:01:20;;;;;;;;;;;;;;;24.20;59.07;96373.47;4196283;28;5216;-68
2022/06/24 06:03:23;;;;;;;;;;;;;;;24.16;59.08;96373.25;4214886;28;5616;-65
2022/06/24 06:05:28;;;;;;;;;;;;;;;24.12;59.18;96372.22;4218463;28;5166;-68
2022/06/24 06:07:31;;;;;;;;;;;;;;;24.11;59.35;96360.63;4196742;28;5659;-66
2022/06/24 06:09:34;;;;;;;;;;;;;;;24.10;59.56;96374.41;4215718;28;5669;-66
2022/06/24 06:11:37;;;;;;;;;;;;;;;24.07;59.79;96372.28;4218045;28;5823;-67
2022/06/24 06:13:40;;;;;;;;;;;;;;;24.05;59.56;96383.38;4218352;28;5616;-68
2022/06/24 06:15:43;;;;;;;;;;;;;;;24.08;59.82;96382.00;4218580;28;5758;-69
2022/06/24 06:17:47;;;;;;;;;;;;;;;24.07;59.49;96386.59;4218592;28;5770;-70
2022/06/24 06:19:50;;;;;;;;;;;;;;;24.08;59.77;96390.09;4216735;28;5593;-69
2022/06/24 06:21:55;;;;;;;;;;;;;;;24.06;59.58;96397.69;4216520;28;5826;-67
2022/06/24 06:23:58;;;;;;;;;;;;;;;24.00;59.91;96398.84;4217688;28;5711;-66
2022/06/24 06:26:04;;;;;;;;;;;;;;;24.01;60.07;96397.72;4215009;28;5621;-71
2022/06/24 06:28:07;;;;;;;;;;;;;;;24.02;60.00;96399.38;4217014;28;5736;-67
2022/06/24 06:30:13;;;;;;;;;;;;;;;24.01;59.79;96398.56;4214867;28;5803;-70
2022/06/24 06:32:16;;;;;;;;;;;;;;;24.00;60.10;96406.94;4215076;28;5648;-66
2022/06/24 06:34:20;;;;;;;;;;;;;;;23.96;60.25;96406.72;4217794;28;5805;-66
2022/06/24 06:36:23;;;;;;;;;;;;;;;23.94;59.99;96413.50;4217431;28;5620;-66
2022/06/24 06:38:27;;;;;;;;;;;;;;;23.92;60.06;96431.88;4214211;28;5739;-66
2022/06/24 06:40:48;;;;;;;;;;;;;;;23.87;60.07;96429.22;4216558;28;5612;-69
2022/06/24 06:42:55;;;;;;;;;;;;;;;23.86;59.77;96433.00;4216754;28;5601;-66
2022/06/24 06:45:00;;;;;;;;;;;;;;;23.83;60.27;96437.09;4217577;28;5803;-68
2022/06/24 06:47:03;;;;;;;;;;;;;;;23.83;59.84;96439.00;4217761;28;5710;-69
2022/06/24 06:49:06;;;;;;;;;;;;;;;23.77;60.32;96452.53;4214464;28;5623;-67
2022/06/24 06:51:10;;;;;;;;;;;;;;;23.72;60.35;96451.78;4216162;28;5672;-68
2022/06/24 06:53:13;;;;;;;;;;;;;;;23.67;60.60;96455.34;4216452;28;6416;-69
2022/06/24 06:55:16;;;;;;;;;;;;;;;23.62;60.35;96446.47;4216587;28;5616;-67
2022/06/24 06:57:19;;;;;;;;;;;;;;;23.66;60.36;96448.31;4212022;28;5712;-67
2022/06/24 06:59:22;;;;;;;;;;;;;;;23.66;60.55;96434.81;4198010;28;5722;-68
2022/06/24 07:01:25;;;;;;;;;;;;;;;23.67;60.99;96436.47;4214921;28;5684;-68
2022/06/24 07:03:29;;;;;;;;;;;;;;;23.68;60.81;96427.28;4215343;28;5620;-66
2022/06/24 07:05:32;;;;;;;;;;;;;;;23.65;61.05;96418.91;4216517;28;5624;-71
2022/06/24 07:07:36;;;;;;;;;;;;;;;23.61;60.70;96405.22;4214270;28;5688;-70
2022/06/24 07:09:40;;;;;;;;;;;;;;;23.58;61.17;96403.09;4216988;28;5621;-70
2022/06/24 07:11:43;;;;;;;;;;;;;;;23.57;60.91;96409.53;4215162;28;5613;-70
2022/06/24 07:13:46;;;;;;;;;;;;;;;23.59;60.76;96404.69;4213973;28;5818;-70
2022/06/24 07:15:49;;;;;;;;;;;;;;;23.60;61.44;96389.31;4210902;28;5807;-72
2022/06/24 07:17:52;;;;;;;;;;;;;;;23.60;61.16;96390.09;4215181;28;5640;-67
2022/06/24 07:19:55;;;;;;;;;;;;;;;23.60;61.32;96387.41;4197076;28;5536;-71
2022/06/24 07:22:01;;;;;;;;;;;;;;;23.62;61.29;96377.13;4204428;28;5616;-72
2022/06/24 07:24:06;;;;;;;;;;;;;;;23.67;61.43;96393.28;4215312;28;5756;-71
2022/06/24 07:26:09;;;;;;;;;;;;;;;23.67;61.59;96395.97;4214503;28;5640;-72
2022/06/24 07:28:13;;;;;;;;;;;;;;;23.68;61.32;96394.88;4199197;28;5741;-71
2022/06/24 07:30:16;;;;;;;;;;;;;;;23.69;61.32;96391.09;4217215;28;5613;-71
2022/06/24 07:32:19;;;;;;;;;;;;;;;23.67;61.37;96381.66;4217184;28;5613;-71
2022/06/24 07:34:22;;;;;;;;;;;;;;;23.69;61.31;96364.09;4217308;28;5617;-71
2022/06/24 07:36:27;;;;;;;;;;;;;;;23.69;61.16;96353.31;4217229;28;5620;-72
2022/06/24 07:38:31;;;;;;;;;;;;;;;23.67;61.30;96355.50;4212595;28;5809;-72
2022/06/24 07:40:35;;;;;;;;;;;;;;;23.70;61.15;96349.53;4212786;28;5609;-71
2022/06/24 07:42:38;;;;;;;;;;;;;;;23.77;61.63;96358.06;4217158;28;5632;-71
2022/06/24 07:44:47;;;;;;;;;;;;;;;23.83;61.00;96363.41;4217003;28;5631;-71
2022/06/24 07:46:51;;;;;;;;;;;;;;;23.89;61.01;96356.84;4217079;28;5724;-72
2022/06/24 07:48:54;;;;;;;;;;;;;;;23.93;61.34;96357.91;4216115;28;5609;-72
2022/06/24 07:51:09;;;;;;;;;;;;;;;23.98;60.72;96355.13;4216275;28;5849;-71
2022/06/24 07:53:12;;;;;;;;;;;;;;;24.00;60.83;96352.94;4216145;28;6808;-72
2022/06/24 07:57:37;;;;;;;;;;;;;;;24.02;61.07;96346.19;4201864;28;5764;-71
2022/06/24 07:59:45;;;;;;;;;;;;;;;24.06;61.01;96346.38;4217261;28;5744;-71
2022/06/24 08:01:48;;;;;;;;;;;;;;;24.10;60.79;96347.41;4216617;28;5630;-72
2022/06/24 08:03:51;;;;;;;;;;;;;;;24.15;60.99;96341.97;4217361;28;5640;-72
2022/06/24 08:05:54;;;;;;;;;;;;;;;24.15;60.90;96349.25;4216860;28;5743;-72
2022/06/24 08:07:57;;;;;;;;;;;;;;;24.11;60.77;96355.22;4198710;28;5639;-72
2022/06/24 08:10:00;;;;;;;;;;;;;;;24.07;61.12;96342.59;4215908;28;5684;-72
2022/06/24 08:12:03;;;;;;;;;;;;;;;24.06;61.09;96346.38;4216213;28;5802;-69
2022/06/24 08:14:08;;;;;;;;;;;;;;;24.08;61.07;96349.59;4211976;28;5769;-67
2022/06/24 08:16:11;;;;;;;;;;;;;;;24.09;61.15;96346.59;4217016;28;5700;-68
2022/06/24 08:18:14;;;;;;;;;;;;;;;24.06;61.03;96335.59;4216552;28;5820;-67
2022/06/24 08:20:17;;;;;;;;;;;;;;;24.08;60.87;96345.00;4216036;28;5605;-67
2022/06/24 08:22:20;;;;;;;;;;;;;;;24.09;61.16;96343.09;4214691;28;7668;-65
2022/06/24 08:24:23;;;;;;;;;;;;;;;24.10;61.07;96347.41;4218354;28;5624;-67
2022/06/24 08:26:27;;;;;;;;;;;;;;;24.12;60.97;96342.50;4219554;28;5676;-66
2022/06/24 08:28:30;;;;;;;;;;;;;;;24.12;61.37;96339.81;4220417;28;5692;-66
2022/06/24 08:30:37;;;;;;;;;;;;;;;24.09;61.26;96335.00;4220158;28;5162;-67
2022/06/24 08:32:40;;;;;;;;;;;;;;;24.10;61.32;96331.19;4219522;28;5727;-66
2022/06/24 08:34:43;;;;;;;;;;;;;;;24.10;61.29;96325.81;4218950;28;5613;-66
2022/06/24 08:37:06;;;;;;;;;;;;;;;24.06;61.28;96327.50;4203273;28;5766;-66
2022/06/24 08:39:09;;;;;;;;;;;;;;;24.01;61.02;96327.53;4207283;28;5826;-67
2022/06/24 08:41:12;;;;;;;;;;;;;;;24.00;61.03;96315.94;4219240;28;5649;-67
2022/06/24 08:43:15;;;;;;;;;;;;;;;24.00;61.08;96324.03;4219286;28;7992;-67
2022/06/24 08:45:19;;;;;;;;;;;;;;;23.95;61.44;96326.81;4205420;28;5640;-68
2022/06/24 08:47:23;;;;;;;;;;;;;;;23.93;61.41;96330.91;4203806;28;5764;-68
2022/06/24 08:49:27;;;;;;;;;;;;;;;23.98;61.27;96322.72;4218925;28;5766;-69
2022/06/24 08:51:30;;;;;;;;;;;;;;;23.95;61.67;96309.81;4218860;28;6333;-69
2022/06/24 08:53:35;;;;;;;;;;;;;;;23.94;61.54;96305.50;4217520;28;5624;-65
2022/06/24 08:55:39;;;;;;;;;;;;;;;23.95;61.48;96309.81;4217682;28;5624;-67
2022/06/24 08:57:42;;;;;;;;;;;;;;;23.92;61.14;96307.69;4217576;28;5628;-68
2022/06/24 08:59:46;;;;;;;;;;;;;;;23.88;61.22;96302.06;4218842;28;5613;-68
2022/06/24 09:01:49;;;;;;;;;;;;;;;23.88;61.51;96298.56;4219020;28;5620;-67
2022/06/24 09:03:53;;;;;;;;;;;;;;;23.95;61.36;96305.22;4219104;28;5095;-67
2022/06/24 09:05:59;;;;;;;;;;;;;;;24.01;60.98;96305.94;4219076;28;5612;-68
2022/06/24 09:08:05;;;;;;;;;;;;;;;24.03;61.45;96299.19;4201310;28;5635;-68
2022/06/24 09:10:11;;;;;;;;;;;;;;;24.06;61.35;96300.50;4218893;28;5715;-66
2022/06/24 09:12:14;;;;;;;;;;;;;;;24.07;61.13;96304.78;4218916;28;5698;-69
2022/06/24 09:14:17;;;;;;;;;;;;;;;24.11;60.81;96300.41;4219111;28;5709;-68
2022/06/24 09:16:24;;;;;;;;;;;;;;;24.11;61.12;96306.59;4217374;28;5660;-68
2022/06/24 09:18:27;;;;;;;;;;;;;;;24.17;60.67;96315.47;4217674;28;5705;-68
2022/06/24 09:20:33;;;;;;;;;;;;;;;24.24;60.59;96320.50;4219052;28;5720;-68
2022/06/24 09:22:37;;;;;;;;;;;;;;;24.31;60.58;96326.38;4218684;28;5859;-68
2022/06/24 09:24:50;;;;;;;;;;;;;;;24.35;60.57;96330.91;4218497;28;5711;-69
2022/06/24 09:27:00;;;;;;;;;;;;;;;24.38;60.45;96327.63;4216883;28;5612;-66
2022/06/24 09:29:04;;;;;;;;;;;;;;;24.44;60.28;96339.13;4219518;28;5608;-67
2022/06/24 09:31:09;;;;;;;;;;;;;;;24.42;60.62;96335.94;4216547;28;5635;-68
2022/06/24 09:33:17;;;;;;;;;;;;;;;24.40;60.42;96340.81;4205657;28;5636;-69
2022/06/24 09:35:37;;;;;;;;;;;;;;;24.42;60.61;96337.81;4211297;28;5742;-70
2022/06/24 09:37:43;;;;;;;;;;;;;;;24.44;60.60;96341.84;4197836;28;5908;-71
2022/06/24 09:39:46;;;;;;;;;;;;;;;24.42;60.80;96324.31;4215855;28;5725;-73
2022/06/24 09:41:51;;;;;;;;;;;;;;;24.38;60.59;96322.22;4214906;28;5601;-67
2022/06/24 09:43:54;;;;;;;;;;;;;;;24.36;60.98;96319.00;4217022;28;5513;-68
2022/06/24 09:45:58;;;;;;;;;;;;;;;24.41;60.59;96323.50;4219204;28;5788;-68
2022/06/24 09:48:01;;;;;;;;;;;;;;;24.51;60.54;96325.28;4216316;28;7671;-73
2022/06/24 09:50:05;;;;;;;;;;;;;;;24.56;60.30;96328.69;4218985;28;5612;-69
2022/06/24 09:52:11;;;;;;;;;;;;;;;24.58;60.08;96331.91;4219014;28;5613;-68
2022/06/24 09:54:15;;;;;;;;;;;;;;;24.59;60.27;96335.44;4218031;28;5628;-68
2022/06/24 09:56:19;;;;;;;;;;;;;;;24.62;60.00;96342.94;4200766;28;5639;-68
2022/06/24 09:58:23;;;;;;;;;;;;;;;24.63;59.98;96342.63;4217654;28;5112;-68
2022/06/24 10:00:43;;;;;;;;;;;;;;;24.59;60.34;96338.13;4218046;28;5624;-65
2022/06/24 10:02:50;;;;;;;;;;;;;;;24.57;60.32;96340.28;4217815;28;5615;-69
2022/06/24 10:04:54;;;;;;;;;;;;;;;24.54;60.39;96341.69;4218778;28;6295;-70
2022/06/24 10:06:58;;;;;;;;;;;;;;;24.52;60.44;96343.88;4217934;28;5660;-70
2022/06/24 10:09:06;;;;;;;;;;;;;;;24.51;60.32;96344.97;4216222;28;6576;-68
2022/06/24 10:11:14;;;;;;;;;;;;;;;24.56;60.24;96338.69;4217716;28;5648;-68
2022/06/24 10:13:25;;;;;;;;;;;;;;;24.59;60.11;96347.03;4217936;28;5696;-68
2022/06/24 10:15:28;;;;;;;;;;;;;;;24.64;60.30;96357.75;4217721;28;5672;-68
2022/06/24 10:17:34;;;;;;;;;;;;;;;24.66;60.29;96368.28;4217335;28;5815;-67
2022/06/24 10:19:39;;;;;;;;;;;;;;;24.64;60.25;96373.16;4216895;28;5788;-65
2022/06/24 10:21:42;;;;;;;;;;;;;;;24.65;59.84;96380.19;4213164;28;6884;-66
2022/06/24 10:23:50;;;;;;;;;;;;;;;24.63;60.32;96382.38;4217511;28;5701;-66
2022/06/24 10:25:54;;;;;;;;;;;;;;;24.59;59.97;96381.38;4218152;28;5616;-67
2022/06/24 10:28:07;;;;;;;;;;;;;;;24.47;60.43;96379.09;4217792;28;5711;-66
2022/06/24 10:30:10;;;;;;;;;;;;;;;24.43;60.10;96383.47;4206034;28;5648;-68
2022/06/24 10:32:13;;;;;;;;;;;;;;;24.34;60.34;96401.41;4201434;28;5623;-71
2022/06/24 10:34:29;;;;;;;;;;;;;;;24.20;60.46;96414.78;4218772;28;5108;-77
2022/06/24 10:36:34;;;;;;;;;;;;;;;24.03;60.61;96412.56;4216735;28;5609;-71
2022/06/24 10:38:38;;;;;;;;;;;;;;;23.88;60.90;96423.53;4213782;28;5777;-72
2022/06/24 10:40:44;;;;;;;;;;;;;;;23.70;60.98;96435.09;4201390;28;5803;-71
2022/06/24 10:43:06;;;;;;;;;;;;;;;23.62;61.65;96439.19;4212898;28;5623;-71
2022/06/24 10:45:10;;;;;;;;;;;;;;;23.60;61.31;96454.88;4200036;28;5842;-72
2022/06/24 10:47:44;;;;;;;;;;;;;;;23.46;61.69;96478.16;4197984;28;5617;-71
2022/06/24 10:50:06;;;;;;;;;;;;;;;23.28;61.65;96492.34;4211703;28;5866;-72
2022/06/24 10:52:30;;;;;;;;;;;;;;;23.15;61.86;96497.28;4216323;28;6390;-72
2022/06/24 10:54:33;;;;;;;;;;;;;;;23.06;61.83;96503.53;4206385;28;5609;-71
2022/06/24 10:56:41;;;;;;;;;;;;;;;23.03;61.76;96506.81;4217594;28;5524;-71
2022/06/24 10:58:46;;;;;;;;;;;;;;;23.06;61.50;96520.50;4217307;28;5528;-72
2022/06/24 11:00:54;;;;;;;;;;;;;;;23.05;61.34;96520.81;4215123;28;5720;-70
2022/06/24 11:03:12;;;;;;;;;;;;;;;23.02;61.59;96532.16;4216365;28;5596;-72
2022/06/24 11:05:18;;;;;;;;;;;;;;;22.92;61.83;96538.41;4216989;28;5652;-71
2022/06/24 11:07:22;;;;;;;;;;;;;;;22.79;61.66;96550.56;4215469;28;5608;-71
2022/06/24 11:09:28;;;;;;;;;;;;;;;22.70;61.82;96549.53;4215986;28;5743;-71
2022/06/24 11:11:32;;;;;;;;;;;;;;;22.71;61.88;96563.78;4217492;28;5632;-71
2022/06/24 11:13:35;;;;;;;;;;;;;;;22.73;62.23;96562.44;4215909;28;5916;-71
2022/06/24 11:15:42;;;;;;;;;;;;;;;22.74;62.30;96568.63;4217721;28;5716;-71
2022/06/24 11:17:45;;;;;;;;;;;;;;;22.74;62.22;96566.75;4216129;28;5640;-71
2022/06/24 11:19:48;;;;;;;;;;;;;;;22.78;62.52;96561.63;4217219;28;5696;-71
2022/06/24 11:21:52;;;;;;;;;;;;;;;22.88;62.46;96569.69;4215604;28;5608;-71
2022/06/24 11:24:00;;;;;;;;;;;;;;;22.96;62.21;96566.41;4216807;28;5625;-71
2022/06/24 11:26:06;;;;;;;;;;;;;;;23.02;61.77;96570.69;4217301;28;5624;-73
2022/06/24 11:28:19;;;;;;;;;;;;;;;23.07;61.93;96577.94;4214932;28;5728;-69
2022/06/24 11:30:21;;;;;;;;;;;;;;;23.14;61.79;96573.88;4215327;28;6290;-69
2022/06/24 11:32:26;;;;;;;;;;;;;;;23.17;62.05;96584.09;4216671;28;5080;-70
2022/06/24 11:34:29;;;;;;;;;;;;;;;23.14;62.13;96579.25;4199055;28;5752;-70
2022/06/24 11:36:33;;;;;;;;;;;;;;;23.14;62.05;96576.56;4203997;28;5617;-68
2022/06/24 11:38:48;;;;;;;;;;;;;;;23.17;61.72;96576.00;4214894;28;5755;-67
2022/06/24 11:40:51;;;;;;;;;;;;;;;23.17;61.71;96584.09;4215006;28;5715;-69
2022/06/24 11:42:55;;;;;;;;;;;;;;;23.24;61.83;96579.19;4215879;28;5613;-69
2022/06/24 11:44:58;;;;;;;;;;;;;;;23.26;61.33;96581.63;4215804;28;5612;-65
2022/06/24 11:47:01;;;;;;;;;;;;;;;23.29;61.59;96577.53;4214976;28;5620;-67
2022/06/24 11:49:08;;;;;;;;;;;;;;;23.33;61.25;96587.50;4216753;28;5620;-69
2022/06/24 11:51:17;;;;;;;;;;;;;;;23.40;61.30;96576.41;4216003;28;5826;-69
2022/06/24 11:53:25;;;;;;;;;;;;;;;23.46;61.07;96578.00;4215997;28;5633;-71
2022/06/24 11:55:30;;;;;;;;;;;;;;;23.51;60.93;96572.53;4216197;28;5620;-74
2022/06/24 11:57:34;;;;;;;;;;;;;;;23.50;60.85;96585.22;4218049;28;5504;-78
2022/06/24 11:59:37;;;;;;;;;;;;;;;23.47;60.63;96587.69;4218914;28;5731;-76
2022/06/24 12:01:41;;;;;;;;;;;;;;;23.50;60.67;96577.13;4219810;28;6154;-76
2022/06/24 12:03:50;;;;;;;;;;;;;;;23.56;60.30;96577.91;4220346;28;5620;-72
2022/06/24 12:05:54;;;;;;;;;;;;;;;23.56;59.81;96580.63;4219827;28;5790;-73
2022/06/24 12:07:59;;;;;;;;;;;;;;;23.56;59.96;96583.31;4219365;28;5830;-72
2022/06/24 12:10:02;;;;;;;;;;;;;;;23.59;59.83;96590.88;4220217;28;5620;-72
2022/06/24 12:12:14;;;;;;;;;;;;;;;23.62;59.50;96600.28;4219559;28;5624;-66
2022/06/24 12:14:18;;;;;;;;;;;;;;;23.57;59.77;96605.69;4202671;28;5698;-65
2022/06/24 12:16:21;;;;;;;;;;;;;;;23.55;59.45;96589.78;4218632;28;5648;-63
2022/06/24 12:18:27;;;;;;;;;;;;;;;23.57;59.15;96592.22;4220446;28;5604;-68
2022/06/24 12:20:31;;;;;;;;;;;;;;;23.56;58.81;96594.09;4220452;28;5707;-79
2022/06/24 12:22:35;;;;;;;;;;;;;;;23.55;59.04;96597.88;4203763;28;5643;-73
2022/06/24 12:24:40;;;;;;;;;;;;;;;23.56;58.57;96606.75;4203405;28;5628;-74
2022/06/24 12:26:44;;;;;;;;;;;;;;;23.51;58.62;96600.31;4214037;28;5640;-72
2022/06/24 12:29:00;;;;;;;;;;;;;;;23.52;58.69;96590.34;4220237;28;5608;-70
2022/06/24 12:31:04;;;;;;;;;;;;;;;23.49;58.38;96580.13;4197555;28;5387;-68
2022/06/24 12:33:13;;;;;;;;;;;;;;;23.50;58.19;96587.94;4219074;28;5695;-68
2022/06/24 12:35:29;;;;;;;;;;;;;;;23.48;58.20;96584.72;4218523;28;7722;-69
2022/06/24 12:37:32;;;;;;;;;;;;;;;23.46;57.81;96586.09;4217012;28;5631;-66
2022/06/24 12:39:40;;;;;;;;;;;;;;;23.45;58.01;96579.06;4217637;28;6322;-70
2022/06/24 12:41:45;;;;;;;;;;;;;;;23.46;57.71;96586.09;4220208;28;5632;-68
2022/06/24 12:43:55;;;;;;;;;;;;;;;23.44;57.51;96570.19;4218319;28;5633;-72
2022/06/24 12:45:59;;;;;;;;;;;;;;;23.43;57.58;96576.63;4200173;28;5639;-72
2022/06/24 12:50:36;;;;;;;;;;;;;;;23.43;57.10;96565.84;4203493;28;5730;-72
2022/06/24 12:52:40;;;;;;;;;;;;;;;23.43;57.17;96563.13;4212744;28;5747;-72
2022/06/24 12:54:44;;;;;;;;;;;;;;;23.45;56.91;96562.88;4219431;28;5711;-72
2022/06/24 12:56:59;;;;;;;;;;;;;;;23.45;56.65;96568.28;4218771;28;5632;-68
2022/06/24 12:59:03;;;;;;;;;;;;;;;23.46;56.90;96572.59;4217793;28;5740;-74
2022/06/24 13:01:06;;;;;;;;;;;;;;;23.47;56.73;96572.31;4218994;28;5613;-72
2022/06/24 13:03:09;;;;;;;;;;;;;;;23.44;56.42;96566.66;4218941;28;6262;-69
2022/06/24 13:05:13;;;;;;;;;;;;;;;23.41;56.10;96568.03;4218947;28;5715;-70
2022/06/24 13:07:16;;;;;;;;;;;;;;;23.42;56.16;96568.81;4199388;28;5535;-69
2022/06/24 13:09:20;;;;;;;;;;;;;;;23.39;56.09;96570.19;4219048;28;5648;-71
2022/06/24 13:11:24;;;;;;;;;;;;;;;23.40;56.27;96565.59;4198179;28;5766;-71
2022/06/24 13:13:27;;;;;;;;;;;;;;;23.39;55.94;96559.41;4196415;28;5639;-71
2022/06/24 13:15:31;;;;;;;;;;;;;;;23.41;55.97;96572.59;4218242;28;5613;-69
2022/06/24 13:17:35;;;;;;;;;;;;;;;23.39;55.89;96570.19;4217201;28;5625;-73
2022/06/24 13:19:38;;;;;;;;;;;;;;;23.37;55.73;96563.47;4218165;28;5802;-71
2022/06/24 13:21:41;;;;;;;;;;;;;;;23.36;55.72;96568.06;4216654;28;5830;-70
2022/06/24 13:23:44;;;;;;;;;;;;;;;23.39;55.64;96569.38;4216254;28;5624;-72
2022/06/24 13:25:49;;;;;;;;;;;;;;;23.44;55.39;96570.19;4223627;28;5713;-74
2022/06/24 13:27:54;;;;;;;;;;;;;;;23.45;55.25;96568.28;4216373;28;5831;-75
2022/06/24 13:29:58;;;;;;;;;;;;;;;23.44;55.22;96561.25;4217743;28;5628;-70
2022/06/24 13:32:00;;;;;;;;;;;;;;;23.47;55.08;96566.09;4228001;28;5609;-72
2022/06/24 13:34:03;;;;;;;;;;;;;;;23.49;55.41;96558.53;4223076;28;5648;-67
2022/06/24 13:36:07;;;;;;;;;;;;;;;23.50;55.05;96549.34;4220939;28;5605;-71
2022/06/24 13:38:10;;;;;;;;;;;;;;;23.45;55.39;96544.81;4218854;28;5628;-70
2022/06/24 13:40:13;;;;;;;;;;;;;;;23.46;55.12;96535.63;4216225;28;5668;-72
2022/06/24 13:42:16;;;;;;;;;;;;;;;23.45;55.08;96530.53;4217495;28;5749;-72
2022/06/24 13:44:22;;;;;;;;;;;;;;;23.45;55.00;96530.53;4223057;28;5586;-68
2022/06/24 13:46:26;;;;;;;;;;;;;;;23.48;55.17;96527.25;4220789;28;5612;-75
2022/06/24 13:48:29;;;;;;;;;;;;;;;23.46;54.76;96524.84;4198566;28;5643;-74
2022/06/24 13:50:32;;;;;;;;;;;;;;;23.49;55.15;96521.56;4201680;28;5750;-72
2022/06/24 13:52:36;;;;;;;;;;;;;;;23.49;55.08;96534.25;4201650;28;5682;-78
2022/06/24 13:54:40;;;;;;;;;;;;;;;23.54;55.13;96534.19;4200962;28;5780;-71
2022/06/24 13:56:45;;;;;;;;;;;;;;;23.54;55.18;96545.00;4196960;28;5829;-72
2022/06/24 13:58:49;;;;;;;;;;;;;;;23.53;55.04;96543.38;4196523;28;5772;-72
2022/06/24 14:00:59;;;;;;;;;;;;;;;23.43;55.53;96546.97;4198500;28;5705;-73
2022/06/24 14:03:02;;;;;;;;;;;;;;;23.40;55.58;96549.41;4203321;28;6489;-75
2022/06/24 14:05:05;;;;;;;;;;;;;;;23.41;55.45;96541.03;4202529;28;5827;-68
2022/06/24 14:07:08;;;;;;;;;;;;;;;23.39;55.83;96539.72;4200272;28;5789;-70
2022/06/24 14:09:11;;;;;;;;;;;;;;;23.41;55.57;96540.25;4200116;28;5682;-73
2022/06/24 14:11:14;;;;;;;;;;;;;;;23.44;55.37;96535.09;4199157;28;5884;-70
2022/06/24 14:13:17;;;;;;;;;;;;;;;23.45;55.69;96535.91;4197772;28;5793;-75
2022/06/24 14:15:20;;;;;;;;;;;;;;;23.47;55.63;96539.13;4196965;28;5686;-73
2022/06/24 14:17:24;;;;;;;;;;;;;;;23.47;55.94;96537.22;4200198;28;5803;-75
2022/06/24 14:19:36;;;;;;;;;;;;;;;23.45;55.77;96544.00;4197967;28;7706;-69
2022/06/24 14:21:39;;;;;;;;;;;;;;;23.47;55.44;96548.03;4200211;28;5698;-69
2022/06/24 14:26:03;;;;;;;;;;;;;;;23.45;55.68;96555.59;4196451;28;5753;-73
2022/06/24 14:28:06;;;;;;;;;;;;;;;23.49;55.69;96545.03;4199074;28;5694;-68
2022/06/24 14:30:10;;;;;;;;;;;;;;;23.53;55.54;96548.78;4198582;28;5804;-70
2022/06/24 14:32:13;;;;;;;;;;;;;;;23.57;55.17;96547.16;4201499;28;5761;-71
2022/06/24 14:34:18;;;;;;;;;;;;;;;23.65;55.32;96543.06;4200775;28;5691;-72
2022/06/24 14:36:21;;;;;;;;;;;;;;;23.78;55.69;96550.50;4210499;28;5717;-73
2022/06/24 14:40:44;;;;;;;;;;;;;;;23.96;55.09;96546.28;4198910;28;5823;-72
2022/06/24 14:42:54;;;;;;;;;;;;;;;23.98;55.60;96555.72;4194011;28;5873;-72
2022/06/24 14:44:58;;;;;;;;;;;;;;;23.94;55.08;96551.19;4198230;28;5693;-72
2022/06/24 14:47:03;;;;;;;;;;;;;;;23.94;55.66;96554.69;4197288;28;5703;-71
2022/06/24 14:49:06;;;;;;;;;;;;;;;23.90;55.22;96555.53;4206375;28;5703;-72
2022/06/24 14:51:30;;;;;;;;;;;;;;;23.86;55.64;96557.19;4216238;28;5794;-71
2022/06/24 14:53:33;;;;;;;;;;;;;;;23.86;55.35;96559.88;4215698;28;5723;-71
2022/06/24 14:55:37;;;;;;;;;;;;;;;23.88;55.70;96555.00;4199148;28;5746;-71
2022/06/24 14:57:39;;;;;;;;;;;;;;;23.92;55.42;96556.88;4215834;28;5774;-71
2022/06/24 14:59:45;;;;;;;;;;;;;;;23.92;55.31;96567.66;4217104;28;5861;-71